Time;durP1;ratioP1;P1;durP2;ratioP2;P2;SDS_P1;SDS_P2;PMS_P1;PMS_P2;Temp;Humidity;BMP_temperature;BMP_pressure;BME280_temperature;BME280_humidity;BME280_pressure;Samples;Min_cycle;Max_cycle;Signal;HPM_P1;HPM_P2
2024/02/29 00:00:20;;;;;;;39.30;22.60;;;;;;;10.57;100.00;100624.03;5090788;28;20499;-46
2024/02/29 00:02:49;;;;;;;36.72;22.67;;;;;;;10.45;100.00;100624.72;5093644;28;20055;-46
2024/02/29 00:05:17;;;;;;;43.55;23.90;;;;;;;10.35;100.00;100628.81;5094750;28;20500;-48
2024/02/29 00:07:46;;;;;;;38.28;23.08;;;;;;;10.43;100.00;100626.63;5093541;28;20474;-51
2024/02/29 00:10:15;;;;;;;40.65;23.88;;;;;;;10.34;100.00;100632.44;5094935;28;20060;-47
2024/02/29 00:12:43;;;;;;;43.95;24.58;;;;;;;10.17;100.00;100630.63;5095003;28;20140;-48
2024/02/29 00:15:12;;;;;;;45.10;24.58;;;;;;;10.31;100.00;100633.44;5094682;28;20040;-45
2024/02/29 00:17:41;;;;;;;36.40;21.92;;;;;;;10.27;100.00;100632.75;5094645;28;20060;-45
2024/02/29 00:20:11;;;;;;;38.85;22.58;;;;;;;10.08;100.00;100629.28;5094514;28;20496;-45
2024/02/29 00:22:41;;;;;;;40.08;23.38;;;;;;;9.85;100.00;100622.50;5094529;28;20493;-46
2024/02/29 00:25:10;;;;;;;41.20;23.10;;;;;;;9.79;100.00;100617.47;5094715;28;20048;-45
2024/02/29 00:27:38;;;;;;;38.38;21.70;;;;;;;9.92;100.00;100617.69;5094579;28;20080;-46
2024/02/29 00:30:10;;;;;;;43.75;23.30;;;;;;;9.95;100.00;100622.88;5094513;28;20044;-46
2024/02/29 00:32:38;;;;;;;43.75;22.65;;;;;;;9.76;100.00;100620.31;5094326;28;20056;-48
2024/02/29 00:35:09;;;;;;;41.15;22.60;;;;;;;9.92;100.00;100615.03;5094180;28;20485;-47
2024/02/29 00:37:37;;;;;;;38.75;21.52;;;;;;;9.96;100.00;100617.47;5094317;28;20352;-47
2024/02/29 00:40:07;;;;;;;37.75;21.98;;;;;;;10.00;100.00;100623.50;5094456;28;20048;-46
2024/02/29 00:42:36;;;;;;;37.67;21.30;;;;;;;10.23;100.00;100624.97;5094177;28;20063;-46
2024/02/29 00:45:05;;;;;;;39.25;21.50;;;;;;;10.14;100.00;100630.78;5093884;28;20129;-46
2024/02/29 00:47:34;;;;;;;37.65;21.27;;;;;;;10.09;100.00;100631.00;5093798;28;20048;-46
2024/02/29 00:50:02;;;;;;;36.53;20.45;;;;;;;9.83;100.00;100621.69;5093819;28;20051;-45
2024/02/29 00:52:32;;;;;;;34.53;20.38;;;;;;;9.96;100.00;100622.81;5094112;28;20109;-47
2024/02/29 00:55:03;;;;;;;38.00;21.25;;;;;;;10.04;100.00;100625.94;5092788;28;20488;-46
2024/02/29 00:57:31;;;;;;;40.45;20.77;;;;;;;9.94;100.00;100626.47;5092493;28;20052;-45
2024/02/29 01:00:00;;;;;;;37.25;20.90;;;;;;;10.09;100.00;100624.81;5092411;28;20189;-46
2024/02/29 01:02:29;;;;;;;35.47;21.60;;;;;;;10.14;100.00;100628.13;5092801;28;20068;-47
2024/02/29 01:04:57;;;;;;;34.22;21.17;;;;;;;10.27;100.00;100629.22;5092287;28;20554;-45
2024/02/29 01:07:27;;;;;;;36.00;21.15;;;;;;;10.22;100.00;100621.44;5092651;28;20047;-47
2024/02/29 01:09:58;;;;;;;38.08;21.83;;;;;;;10.19;100.00;100616.25;5092345;28;20051;-46
2024/02/29 01:12:26;;;;;;;38.22;20.70;;;;;;;10.22;100.00;100618.78;5091765;28;20088;-48
2024/02/29 01:14:54;;;;;;;36.80;20.55;;;;;;;9.96;100.00;100608.63;5092303;28;20044;-44
2024/02/29 01:17:24;;;;;;;37.88;21.08;;;;;;;9.68;100.00;100612.69;5092382;28;20473;-46
2024/02/29 01:19:53;;;;;;;38.70;21.38;;;;;;;9.96;100.00;100612.13;5092417;28;20048;-47
2024/02/29 01:22:21;;;;;;;36.10;20.65;;;;;;;10.02;100.00;100610.94;5092129;28;20101;-44
2024/02/29 01:24:49;;;;;;;34.15;19.92;;;;;;;9.95;100.00;100606.91;5092319;28;20075;-46
2024/02/29 01:27:19;;;;;;;34.58;20.73;;;;;;;9.83;100.00;100604.84;5092042;28;20144;-46
2024/02/29 01:29:47;;;;;;;35.22;20.80;;;;;;;9.71;100.00;100601.00;5092279;28;20139;-46
2024/02/29 01:32:16;;;;;;;40.53;21.88;;;;;;;9.67;100.00;100605.66;5092622;28;20443;-47
2024/02/29 01:34:54;;;;;;;35.00;21.70;;;;;;;9.53;100.00;100601.94;5092094;28;20064;-47
2024/02/29 01:37:22;;;;;;;35.72;21.63;;;;;;;9.39;100.00;100605.31;5092061;28;20052;-48
2024/02/29 01:39:50;;;;;;;40.13;22.02;;;;;;;9.38;100.00;100600.91;5091945;28;20044;-46
2024/02/29 01:42:20;;;;;;;40.55;22.83;;;;;;;9.26;100.00;100598.84;5092233;28;20455;-48
2024/02/29 01:44:55;;;;;;;38.33;22.05;;;;;;;9.25;100.00;100603.31;5092081;28;20125;-46
2024/02/29 01:47:24;;;;;;;35.83;21.13;;;;;;;9.18;100.00;100601.91;5091929;28;20052;-47
2024/02/29 01:49:57;;;;;;;40.97;23.15;;;;;;;9.11;100.00;100601.31;5091825;28;20467;-46
2024/02/29 01:52:27;;;;;;;;;;;;;;;9.11;100.00;100596.00;5092092;28;20626;-45
2024/02/29 01:54:55;;;;;;;38.53;21.73;;;;;;;9.10;100.00;100604.94;5042903;28;1405199;-45
2024/02/29 01:57:25;;;;;;;38.60;22.90;;;;;;;9.09;100.00;100592.56;5092852;28;20433;-47
2024/02/29 01:59:54;;;;;;;39.00;22.15;;;;;;;9.04;100.00;100594.56;5092905;28;20044;-47
2024/02/29 02:02:22;;;;;;;37.70;21.95;;;;;;;9.16;100.00;100590.44;5092405;28;20044;-45
2024/02/29 02:04:51;;;;;;;43.60;24.75;;;;;;;8.95;100.00;100584.38;5092333;28;20137;-46
2024/02/29 02:07:19;;;;;;;43.22;23.77;;;;;;;9.02;100.00;100580.47;5092218;28;20404;-44
2024/02/29 02:09:47;;;;;;;43.88;22.67;;;;;;;9.03;100.00;100581.34;5092291;28;20044;-47
2024/02/29 02:12:16;;;;;;;43.42;22.35;;;;;;;9.23;100.00;100578.56;5092529;28;20137;-46
2024/02/29 02:14:45;;;;;;;43.10;22.15;;;;;;;9.45;100.00;100581.00;5092312;28;20762;-49
2024/02/29 02:17:13;;;;;;;38.40;21.00;;;;;;;9.35;100.00;100582.41;5092273;28;20427;-47
2024/02/29 02:19:42;;;;;;;41.58;22.67;;;;;;;9.47;100.00;100581.81;5091928;28;20054;-47
2024/02/29 02:22:12;;;;;;;39.05;22.33;;;;;;;9.37;100.00;100591.22;5092405;28;20052;-45
2024/02/29 02:24:41;;;;;;;39.22;22.10;;;;;;;9.22;100.00;100581.31;5091365;28;20048;-48
2024/02/29 02:27:09;;;;;;;34.78;20.65;;;;;;;9.13;100.00;100583.47;5092303;28;20087;-46
2024/02/29 02:29:37;;;;;;;42.30;22.77;;;;;;;9.19;100.00;100587.66;5091997;28;20056;-46
2024/02/29 02:32:06;;;;;;;40.78;22.48;;;;;;;9.20;100.00;100581.38;5091894;28;20071;-46
2024/02/29 02:34:35;;;;;;;34.95;20.98;;;;;;;9.14;100.00;100582.53;5092151;28;20105;-45
2024/02/29 02:37:03;;;;;;;39.95;22.23;;;;;;;8.96;100.00;100588.75;5091966;28;20048;-46
2024/02/29 02:39:33;;;;;;;39.35;22.23;;;;;;;9.15;100.00;100576.28;5091526;28;20052;-46
2024/02/29 02:42:02;;;;;;;39.10;22.08;;;;;;;9.08;100.00;100569.56;5091602;28;20040;-47
2024/02/29 02:44:30;;;;;;;41.13;21.27;;;;;;;9.14;100.00;100579.03;5091704;28;20052;-46
2024/02/29 02:46:58;;;;;;;43.20;23.30;;;;;;;9.06;100.00;100575.88;5091735;28;20090;-43
2024/02/29 02:49:27;;;;;;;38.85;22.63;;;;;;;9.24;100.00;100571.44;5091724;28;20040;-45
2024/02/29 02:51:55;;;;;;;41.05;22.10;;;;;;;9.11;100.00;100574.72;5091940;28;20040;-45
2024/02/29 02:54:24;;;;;;;40.45;21.77;;;;;;;9.28;100.00;100571.22;5091467;28;20055;-45
2024/02/29 02:56:56;;;;;;;37.83;21.58;;;;;;;9.29;100.00;100575.63;5091622;28;20044;-47
2024/02/29 02:59:25;;;;;;;39.28;22.10;;;;;;;9.36;100.00;100577.03;5091222;28;20048;-45
2024/02/29 03:01:53;;;;;;;41.05;21.08;;;;;;;9.34;100.00;100583.34;5091565;28;20083;-49
2024/02/29 03:04:21;;;;;;;37.45;20.63;;;;;;;9.44;100.00;100587.28;5091211;28;20051;-46
2024/02/29 03:06:49;;;;;;;39.70;20.92;;;;;;;9.49;100.00;100593.25;5091339;28;20137;-46
2024/02/29 03:09:18;;;;;;;38.05;21.50;;;;;;;9.42;100.00;100591.81;5091309;28;20075;-46
2024/02/29 03:11:47;;;;;;;36.78;20.27;;;;;;;9.41;100.00;100587.44;5091216;28;20048;-50
2024/02/29 03:14:16;;;;;;;36.85;21.63;;;;;;;9.52;100.00;100594.88;5091303;28;20054;-47
2024/02/29 03:16:44;;;;;;;38.28;21.52;;;;;;;9.61;100.00;100586.44;5091581;28;20192;-47
2024/02/29 03:19:13;;;;;;;38.30;20.45;;;;;;;9.68;100.00;100591.38;5091500;28;20051;-46
2024/02/29 03:21:41;;;;;;;36.85;20.88;;;;;;;9.66;100.00;100600.41;5091337;28;20048;-45
2024/02/29 03:24:10;;;;;;;42.30;20.85;;;;;;;9.56;100.00;100585.81;5090957;28;20044;-45
2024/02/29 03:26:38;;;;;;;35.53;21.48;;;;;;;9.67;100.00;100594.13;5090934;28;20408;-48
2024/02/29 03:29:07;;;;;;;36.05;21.40;;;;;;;9.69;100.00;100589.59;5091236;28;20059;-47
2024/02/29 03:31:37;;;;;;;42.13;22.13;;;;;;;9.52;100.00;100590.44;5091063;28;20105;-47
2024/02/29 03:34:05;;;;;;;36.65;21.90;;;;;;;9.48;100.00;100593.34;5091111;28;20127;-45
2024/02/29 03:36:34;;;;;;;39.67;21.30;;;;;;;9.41;100.00;100587.44;5090684;28;20476;-45
2024/02/29 03:39:04;;;;;;;37.53;22.00;;;;;;;9.61;100.00;100600.63;5090563;28;20047;-45
2024/02/29 03:41:33;;;;;;;40.72;21.63;;;;;;;9.56;100.00;100602.66;5090707;28;20094;-46
2024/02/29 03:44:01;;;;;;;39.28;21.77;;;;;;;9.49;100.00;100601.25;5090754;28;20164;-45
2024/02/29 03:46:29;;;;;;;37.97;22.25;;;;;;;9.32;100.00;100598.56;5090681;28;20511;-46
2024/02/29 03:48:59;;;;;;;37.30;21.80;;;;;;;9.33;100.00;100600.28;5090697;28;20048;-45
2024/02/29 03:51:28;;;;;;;41.08;22.65;;;;;;;9.40;100.00;100601.69;5090655;28;20079;-46
2024/02/29 03:53:56;;;;;;;40.05;22.92;;;;;;;9.27;100.00;100605.91;5090361;28;20063;-46
2024/02/29 03:56:24;;;;;;;37.13;21.92;;;;;;;9.16;100.00;100599.28;5090819;28;20094;-45
2024/02/29 03:58:52;;;;;;;37.63;22.42;;;;;;;9.14;100.00;100595.84;5090724;28;20122;-44
2024/02/29 04:01:20;;;;;;;40.30;21.20;;;;;;;9.16;100.00;100588.66;5090726;28;20074;-45
2024/02/29 04:03:49;;;;;;;39.67;21.30;;;;;;;9.07;100.00;100580.25;5091044;28;20048;-46
2024/02/29 04:06:19;;;;;;;36.63;21.73;;;;;;;9.16;100.00;100588.66;5090493;28;20044;-45
2024/02/29 04:08:47;;;;;;;38.03;22.40;;;;;;;9.29;100.00;100588.91;5090819;28;20048;-45
2024/02/29 04:11:15;;;;;;;38.80;22.48;;;;;;;9.38;100.00;100590.28;5090596;28;20508;-45
2024/02/29 04:13:44;;;;;;;40.67;22.30;;;;;;;9.20;100.00;100591.19;5090680;28;20048;-46
2024/02/29 04:16:13;;;;;;;39.15;21.33;;;;;;;9.24;100.00;100590.06;5090620;28;20147;-46
2024/02/29 04:18:42;;;;;;;43.13;22.60;;;;;;;9.22;100.00;100581.31;5090290;28;20417;-45
2024/02/29 04:21:10;;;;;;;37.15;21.35;;;;;;;9.04;100.00;100575.94;5090662;28;20044;-45
2024/02/29 04:23:39;;;;;;;38.38;22.85;;;;;;;8.97;100.00;100585.16;5090451;28;20080;-47
2024/02/29 04:26:08;;;;;;;38.03;21.42;;;;;;;8.87;100.00;100582.06;5090612;28;20044;-46
2024/02/29 04:28:36;;;;;;;38.67;22.17;;;;;;;8.84;100.00;100578.72;5090328;28;20542;-45
2024/02/29 04:31:05;;;;;;;47.90;22.60;;;;;;;9.03;100.00;100576.88;5090400;28;20560;-46
2024/02/29 04:33:34;;;;;;;40.65;22.67;;;;;;;9.15;100.00;100570.09;5090228;28;20048;-46
2024/02/29 04:36:02;;;;;;;40.90;22.88;;;;;;;9.21;100.00;100576.94;5090757;28;20364;-46
2024/02/29 04:38:30;;;;;;;42.17;22.88;;;;;;;9.21;100.00;100579.59;5090152;28;20052;-51
2024/02/29 04:41:00;;;;;;;38.97;21.85;;;;;;;9.36;100.00;100577.03;5090318;28;20094;-46
2024/02/29 04:43:28;;;;;;;43.13;23.05;;;;;;;9.41;100.00;100579.47;5090027;28;20406;-46
2024/02/29 04:45:56;;;;;;;41.35;22.60;;;;;;;9.40;100.00;100575.94;5090179;28;20074;-45
2024/02/29 04:48:25;;;;;;;37.63;22.50;;;;;;;9.48;100.00;100578.22;5093350;28;20098;-45
2024/02/29 04:50:53;;;;;;;40.85;22.15;;;;;;;9.38;100.00;100582.28;5094070;28;20044;-46
2024/02/29 04:53:22;;;;;;;39.15;23.30;;;;;;;9.37;100.00;100583.22;5093736;28;20059;-47
2024/02/29 04:55:50;;;;;;;45.20;23.20;;;;;;;9.38;100.00;100587.59;5093813;28;20082;-46
2024/02/29 04:58:20;;;;;;;43.50;23.45;;;;;;;9.39;100.00;100592.00;5093722;28;20044;-47
2024/02/29 05:00:48;;;;;;;44.17;23.00;;;;;;;9.21;100.00;100591.09;5093592;28;20481;-47
2024/02/29 05:03:16;;;;;;;41.65;23.33;;;;;;;9.30;100.00;100589.78;5093769;28;20079;-45
2024/02/29 05:05:45;;;;;;;41.05;22.67;;;;;;;9.16;100.00;100588.66;5093801;28;20070;-47
2024/02/29 05:08:13;;;;;;;40.53;22.73;;;;;;;9.20;100.00;100585.84;5093486;28;20059;-45
2024/02/29 05:10:42;;;;;;;48.30;24.25;;;;;;;9.27;100.00;100595.28;5093680;28;20060;-45
2024/02/29 05:13:11;;;;;;;41.33;22.65;;;;;;;9.17;100.00;100590.41;5093502;28;20492;-46
2024/02/29 05:15:40;;;;;;;44.30;23.35;;;;;;;9.27;100.00;100585.47;5093736;28;20044;-45
2024/02/29 05:18:11;;;;;;;48.28;25.20;;;;;;;9.21;100.00;100591.09;5093603;28;20203;-45
2024/02/29 05:20:40;;;;;;;40.15;23.63;;;;;;;9.17;100.00;100585.06;5093166;28;20052;-45
2024/02/29 05:23:09;;;;;;;40.90;23.75;;;;;;;8.97;100.00;100585.16;5093283;28;20135;-46
2024/02/29 05:25:37;;;;;;;46.40;24.05;;;;;;;8.90;100.00;100589.06;5093055;28;20101;-46
2024/02/29 05:28:06;;;;;;;44.03;23.52;;;;;;;8.56;100.00;100592.44;5093325;28;20051;-47
2024/02/29 05:30:34;;;;;;;46.28;23.83;;;;;;;8.54;100.00;100589.84;5093369;28;20454;-48
2024/02/29 05:33:04;;;;;;;42.42;23.30;;;;;;;8.20;100.00;100585.19;5093367;28;20080;-48
2024/02/29 05:35:33;;;;;;;46.90;24.38;;;;;;;8.18;100.00;100588.84;5093154;28;20051;-45
2024/02/29 05:38:02;;;;;;;42.78;25.05;;;;;;;8.26;100.00;100589.34;5092968;28;20051;-46
2024/02/29 05:40:31;;;;;;;44.40;24.23;;;;;;;8.34;100.00;100587.22;5092575;28;20066;-46
2024/02/29 05:42:59;;;;;;;44.65;23.70;;;;;;;8.51;100.00;100584.69;5092781;28;20044;-46
2024/02/29 05:45:27;;;;;;;47.35;24.85;;;;;;;8.57;100.00;100589.69;5092934;28;20109;-45
2024/02/29 05:47:56;;;;;;;42.40;23.40;;;;;;;8.83;100.00;100593.81;5092907;28;20059;-46
2024/02/29 05:50:26;;;;;;;46.45;23.95;;;;;;;8.84;100.00;100592.00;5092760;28;20059;-46
2024/02/29 05:52:59;;;;;;;46.53;24.00;;;;;;;8.79;100.00;100599.34;5092603;28;20055;-46
2024/02/29 05:55:27;;;;;;;43.50;23.50;;;;;;;8.82;100.00;100597.41;5092435;28;20452;-46
2024/02/29 05:57:55;;;;;;;40.63;23.23;;;;;;;9.06;100.00;100595.34;5091879;28;20087;-46
2024/02/29 06:00:23;;;;;;;48.08;23.90;;;;;;;8.82;100.00;100599.19;5091994;28;20094;-47
2024/02/29 06:02:52;;;;;;;39.20;23.35;;;;;;;8.97;100.00;100603.78;5092462;28;20048;-45
2024/02/29 06:05:21;;;;;;;42.50;23.60;;;;;;;9.01;100.00;100599.19;5092278;28;20048;-46
2024/02/29 06:07:50;;;;;;;44.08;23.35;;;;;;;9.07;100.00;100599.78;5092530;28;20051;-46
2024/02/29 06:10:19;;;;;;;41.50;23.67;;;;;;;9.20;100.00;100609.81;5092282;28;20557;-46
2024/02/29 06:12:47;;;;;;;45.67;22.73;;;;;;;9.28;100.00;100613.81;5092356;28;20070;-46
2024/02/29 06:15:16;;;;;;;45.47;22.45;;;;;;;9.38;100.00;100619.56;5092241;28;20116;-47
2024/02/29 06:17:44;;;;;;;37.72;22.27;;;;;;;9.46;100.00;100612.06;5091908;28;20119;-48
2024/02/29 06:20:14;;;;;;;43.30;23.23;;;;;;;9.38;100.00;100615.09;5091777;28;20048;-47
2024/02/29 06:22:42;;;;;;;45.28;24.20;;;;;;;9.18;100.00;100612.53;5092017;28;20143;-50
2024/02/29 06:25:12;;;;;;;46.35;24.75;;;;;;;9.14;100.00;100617.13;5091777;28;20143;-47
2024/02/29 06:27:40;;;;;;;47.28;25.30;;;;;;;8.95;100.00;100613.63;5091584;28;20083;-45
2024/02/29 06:30:10;;;;;;;46.08;25.67;;;;;;;8.99;100.00;100612.56;5091873;28;20080;-46
2024/02/29 06:32:40;;;;;;;45.88;25.33;;;;;;;9.13;100.00;100603.91;5091573;28;20055;-46
2024/02/29 06:35:10;;;;;;;49.53;26.05;;;;;;;9.39;100.00;100594.66;5090822;28;20044;-47
2024/02/29 06:37:40;;;;;;;46.40;25.92;;;;;;;9.65;100.00;100596.88;5090585;28;20071;-45
2024/02/29 06:40:10;;;;;;;46.10;26.42;;;;;;;9.53;100.00;100602.81;5091219;28;20048;-44
2024/02/29 06:42:41;;;;;;;50.15;26.23;;;;;;;9.60;100.00;100604.22;5090940;28;20044;-46
2024/02/29 06:45:10;;;;;;;44.88;25.25;;;;;;;9.63;100.00;100608.53;5091868;28;20044;-45
2024/02/29 06:47:40;;;;;;;46.40;24.33;;;;;;;9.80;100.00;100613.00;5091428;28;20081;-45
2024/02/29 06:50:10;;;;;;;45.33;25.85;;;;;;;9.50;100.00;100616.28;5091185;28;20456;-46
2024/02/29 06:52:39;;;;;;;44.17;25.30;;;;;;;9.78;100.00;100606.91;5091404;28;20153;-46
2024/02/29 06:55:08;;;;;;;42.67;24.20;;;;;;;9.65;100.00;100607.53;5091235;28;20098;-48
2024/02/29 06:57:36;;;;;;;45.95;24.20;;;;;;;9.73;100.00;100605.31;5091175;28;20354;-45
2024/02/29 07:00:08;;;;;;;43.30;24.15;;;;;;;10.09;100.00;100615.03;5090968;28;20507;-46
2024/02/29 07:02:38;;;;;;;44.53;23.77;;;;;;;10.30;100.00;100621.91;5091127;28;20094;-46
2024/02/29 07:05:08;;;;;;;42.70;23.08;;;;;;;10.39;100.00;100611.69;5091273;28;20044;-46
2024/02/29 07:07:37;;;;;;;46.13;23.48;;;;;;;10.14;100.00;100620.97;5090988;28;20048;-46
2024/02/29 07:10:07;;;;;;;42.92;24.13;;;;;;;10.26;100.00;100615.03;5090508;28;20087;-45
2024/02/29 07:12:40;;;;;;;43.92;23.13;;;;;;;10.57;100.00;100606.22;5090980;28;20097;-47
2024/02/29 07:15:11;;;;;;;42.20;22.55;;;;;;;10.55;100.00;100604.59;5091146;28;20044;-45
2024/02/29 07:17:39;;;;;;;44.42;24.38;;;;;;;10.27;100.00;100598.09;5090926;28;20062;-46
2024/02/29 07:20:10;;;;;;;42.33;24.10;;;;;;;10.02;100.00;100602.94;5091125;28;20173;-46
2024/02/29 07:22:38;;;;;;;44.55;23.77;;;;;;;10.03;100.00;100602.84;5091109;28;20043;-46
2024/02/29 07:25:08;;;;;;;43.35;25.05;;;;;;;10.21;100.00;100597.50;5091483;28;20044;-46
2024/02/29 07:27:38;;;;;;;44.58;24.83;;;;;;;10.02;100.00;100600.28;5091208;28;20494;-46
2024/02/29 07:30:09;;;;;;;45.00;24.27;;;;;;;9.92;100.00;100599.91;5091307;28;20109;-47
2024/02/29 07:32:38;;;;;;;42.28;23.83;;;;;;;9.79;100.00;100592.63;5091032;28;20133;-46
2024/02/29 07:35:11;;;;;;;45.15;24.08;;;;;;;9.79;100.00;100592.63;5090870;28;20056;-47
2024/02/29 07:37:39;;;;;;;38.72;23.40;;;;;;;10.03;100.00;100596.66;5090774;28;20048;-45
2024/02/29 07:40:08;;;;;;;37.13;23.08;;;;;;;9.99;100.00;100590.66;5090727;28;20040;-45
2024/02/29 07:42:38;;;;;;;44.80;24.25;;;;;;;9.96;100.00;100595.28;5091097;28;20044;-46
2024/02/29 07:45:08;;;;;;;50.50;25.20;;;;;;;9.87;100.00;100596.63;5090898;28;20048;-52
2024/02/29 07:47:37;;;;;;;46.22;23.60;;;;;;;9.81;100.00;100593.41;5090784;28;20127;-46
2024/02/29 07:50:09;;;;;;;43.63;24.30;;;;;;;9.88;100.00;100592.16;5090842;28;20062;-45
2024/02/29 07:52:38;;;;;;;42.08;23.45;;;;;;;9.82;100.00;100582.66;5090695;28;20059;-45
2024/02/29 07:55:09;;;;;;;41.90;24.05;;;;;;;9.89;100.00;100584.09;5088729;28;20462;-47
2024/02/29 07:57:39;;;;;;;40.15;23.48;;;;;;;9.94;100.00;100581.16;5090207;28;20044;-46
2024/02/29 08:00:10;;;;;;;44.38;22.45;;;;;;;10.13;100.00;100578.38;5090319;28;20075;-46
2024/02/29 08:02:42;;;;;;;41.97;23.95;;;;;;;10.01;100.00;100578.09;5090422;28;20044;-46
2024/02/29 08:05:11;;;;;;;41.15;22.75;;;;;;;9.95;100.00;100580.25;5090420;28;20331;-46
2024/02/29 08:07:40;;;;;;;38.50;22.73;;;;;;;9.86;100.00;100578.91;5089010;28;20082;-45
2024/02/29 08:10:15;;;;;;;40.47;22.45;;;;;;;9.89;100.00;100578.75;5090225;28;20335;-45
2024/02/29 08:12:44;;;;;;;42.78;22.35;;;;;;;10.08;100.00;100578.66;5090335;28;20132;-46
2024/02/29 08:15:13;;;;;;;41.90;22.02;;;;;;;10.23;100.00;100583.22;5090142;28;20127;-46
2024/02/29 08:17:41;;;;;;;37.50;22.05;;;;;;;10.31;100.00;100580.97;5090146;28;20044;-46
2024/02/29 08:20:12;;;;;;;39.67;21.75;;;;;;;10.43;100.00;100581.28;5090398;28;20048;-49
2024/02/29 08:22:40;;;;;;;39.47;22.48;;;;;;;10.43;100.00;100581.28;5092331;28;20048;-46
2024/02/29 08:25:09;;;;;;;39.50;20.67;;;;;;;10.37;100.00;100584.25;5094154;28;20048;-45
2024/02/29 08:27:37;;;;;;;35.28;21.10;;;;;;;10.41;100.00;100580.47;5093900;28;20059;-45
2024/02/29 08:30:07;;;;;;;37.85;19.80;;;;;;;10.19;100.00;100580.75;5093937;28;20087;-45
2024/02/29 08:32:36;;;;;;;37.42;19.98;;;;;;;10.42;100.00;100576.84;5094019;28;20051;-48
2024/02/29 08:35:07;;;;;;;34.45;20.77;;;;;;;10.12;100.00;100580.19;5093879;28;20048;-46
2024/02/29 08:37:37;;;;;;;36.20;20.27;;;;;;;10.33;100.00;100580.91;5093637;28;20400;-49
2024/02/29 08:40:06;;;;;;;38.15;20.90;;;;;;;10.52;100.00;100578.97;5093250;28;20040;-46
2024/02/29 08:42:36;;;;;;;36.45;20.33;;;;;;;10.58;100.00;100575.09;5093518;28;20128;-45
2024/02/29 08:45:06;;;;;;;37.05;20.88;;;;;;;10.52;100.00;100575.44;5093648;28;20550;-46
2024/02/29 08:47:35;;;;;;;36.53;20.50;;;;;;;10.50;100.00;100574.63;5093596;28;20043;-46
2024/02/29 08:50:05;;;;;;;34.22;20.30;;;;;;;10.65;100.00;100568.47;5093548;28;20362;-49
2024/02/29 08:52:38;;;;;;;44.42;21.90;;;;;;;10.82;100.00;100576.41;5093463;28;20113;-46
2024/02/29 08:55:07;;;;;;;38.92;21.25;;;;;;;10.80;100.00;100570.28;5093458;28;20052;-47
2024/02/29 08:57:36;;;;;;;34.60;19.75;;;;;;;11.07;100.00;100572.34;5093655;28;20396;-44
2024/02/29 09:00:06;;;;;;;42.55;21.17;;;;;;;11.27;100.00;100574.72;5093580;28;20055;-46
2024/02/29 09:02:35;;;;;;;41.95;20.88;;;;;;;11.46;100.00;100572.69;5093419;28;20048;-46
2024/02/29 09:05:04;;;;;;;37.00;20.25;;;;;;;11.57;100.00;100568.53;5093199;28;20040;-47
2024/02/29 09:07:32;;;;;;;36.08;19.73;;;;;;;11.44;100.00;100569.25;5093570;28;20101;-48
2024/02/29 09:10:02;;;;;;;34.05;20.80;;;;;;;11.61;100.00;100562.94;5093329;28;20051;-44
2024/02/29 09:12:30;;;;;;;37.45;21.27;;;;;;;11.93;100.00;100557.47;5093086;28;20086;-45
2024/02/29 09:15:01;;;;;;;39.20;20.35;;;;;;;11.99;100.00;100563.31;5093064;28;20568;-46
2024/02/29 09:17:29;;;;;;;36.38;21.38;;;;;;;11.96;100.00;100559.97;5093134;28;20463;-48
2024/02/29 09:19:58;;;;;;;35.78;20.13;;;;;;;11.89;100.00;100558.63;5092825;28;20502;-45
2024/02/29 09:22:26;;;;;;;40.10;21.50;;;;;;;11.86;100.00;100556.97;5093114;28;20431;-45
2024/02/29 09:24:55;;;;;;;36.83;20.80;;;;;;;12.08;100.00;100558.38;5093365;28;20048;-45
2024/02/29 09:27:24;;;;;;;41.70;22.20;;;;;;;12.35;100.00;100556.63;5093178;28;20120;-44
2024/02/29 09:29:53;;;;;;;35.28;18.95;;;;;;;12.21;100.00;100556.66;5092657;28;20105;-49
2024/02/29 09:32:23;;;;;;;37.80;20.60;;;;;;;12.43;100.00;100554.34;5092842;28;20127;-44
2024/02/29 09:34:52;;;;;;;34.80;20.02;;;;;;;12.54;100.00;100541.13;5092742;28;20040;-45
2024/02/29 09:37:20;;;;;;;38.95;20.77;;;;;;;12.69;100.00;100546.47;5092998;28;20147;-45
2024/02/29 09:39:48;;;;;;;37.33;20.38;;;;;;;12.44;100.00;100549.84;5092729;28;20082;-46
2024/02/29 09:42:17;;;;;;;34.70;18.73;;;;;;;12.72;100.00;100544.47;5092692;28;20124;-45
2024/02/29 09:44:48;;;;;;;31.33;19.67;;;;;;;12.71;100.00;100539.22;5092652;28;20059;-45
2024/02/29 09:47:19;;;;;;;37.33;18.48;;;;;;;12.78;100.00;100532.50;5092505;28;20101;-44
2024/02/29 09:49:47;;;;;;;35.75;19.60;;;;;;;12.94;100.00;100541.28;5092618;28;20735;-45
2024/02/29 09:52:22;;;;;;;31.15;19.38;;;;;;;13.07;100.00;100536.81;5092535;28;20047;-48
2024/02/29 09:54:51;;;;;;;31.35;18.52;;;;;;;13.31;100.00;100539.69;5092342;28;20056;-46
2024/02/29 09:57:19;;;;;;;28.85;18.52;;;;;;;13.53;100.00;100541.81;5092233;28;20047;-46
2024/02/29 09:59:50;;;;;;;33.45;18.45;;;;;;;13.60;100.00;100536.88;5092509;28;20102;-45
2024/02/29 10:02:18;;;;;;;31.52;18.55;;;;;;;13.55;100.00;100539.03;5092293;28;20047;-46
2024/02/29 10:04:48;;;;;;;33.13;18.83;;;;;;;13.39;100.00;100541.88;5092567;28;20564;-46
2024/02/29 10:07:16;;;;;;;31.33;17.77;;;;;;;13.48;100.00;100543.94;5092489;28;20048;-46
2024/02/29 10:09:45;;;;;;;40.75;20.27;;;;;;;13.87;100.00;100534.97;5092268;28;20040;-45
2024/02/29 10:12:18;;;;;;;31.00;17.83;;;;;;;14.13;100.00;100543.03;5091871;28;20048;-45
2024/02/29 10:14:47;;;;;;;31.08;17.83;;;;;;;14.04;100.00;100541.88;5091908;28;20070;-45
2024/02/29 10:17:17;;;;;;;29.98;17.45;;;;;;;13.90;100.00;100528.56;5091911;28;20113;-45
2024/02/29 10:19:52;;;;;;;32.92;18.50;;;;;;;14.08;100.00;100531.75;5091794;28;20128;-44
2024/02/29 10:22:20;;;;;;;34.35;17.70;;;;;;;14.01;100.00;100537.59;5091748;28;20166;-45
2024/02/29 10:24:51;;;;;;;29.30;18.02;;;;;;;14.00;100.00;100521.59;5092225;28;20416;-44
2024/02/29 10:27:19;;;;;;;30.90;17.50;;;;;;;14.19;100.00;100516.66;5091675;28;20405;-45
2024/02/29 10:29:49;;;;;;;29.50;17.55;;;;;;;14.24;100.00;100522.53;5091725;28;20048;-46
2024/02/29 10:32:19;;;;;;;33.55;17.33;;;;;;;14.28;100.00;100518.69;5091714;28;20366;-45
2024/02/29 10:34:47;;;;;;;33.63;18.63;;;;;;;14.42;100.00;100514.13;5091487;28;20623;-44
2024/02/29 10:37:17;;;;;;;33.78;18.67;;;;;;;14.47;100.00;100512.84;5091419;28;20043;-46
2024/02/29 10:39:45;;;;;;;32.72;17.80;;;;;;;14.48;100.00;100511.06;5091388;28;20044;-45
2024/02/29 10:42:15;;;;;;;31.42;17.52;;;;;;;14.37;100.00;100501.03;5091503;28;20135;-44
2024/02/29 10:44:46;;;;;;;30.20;17.10;;;;;;;14.39;100.00;100512.53;5090994;28;20122;-45
2024/02/29 10:47:17;;;;;;;30.15;17.55;;;;;;;14.48;100.00;100503.00;5091438;28;20460;-46
2024/02/29 10:49:52;;;;;;;30.60;17.15;;;;;;;14.70;100.00;100489.72;5090868;28;20052;-45
2024/02/29 10:52:26;;;;;;;30.80;16.80;;;;;;;14.94;100.00;100492.41;5091160;28;20146;-50
2024/02/29 10:55:05;;;;;;;26.58;17.25;;;;;;;14.93;100.00;100489.84;5091126;28;20056;-48
2024/02/29 10:57:42;;;;;;;30.33;16.50;;;;;;;15.13;100.00;100486.53;5091078;28;20211;-47
2024/02/29 11:00:12;;;;;;;30.25;17.55;;;;;;;15.27;100.00;100485.50;5091362;28;20511;-46
2024/02/29 11:02:41;;;;;;;25.58;15.90;;;;;;;15.32;100.00;100478.78;5091286;28;20051;-48
2024/02/29 11:05:12;;;;;;;28.13;16.95;;;;;;;15.27;100.00;100470.22;5091538;28;20048;-46
2024/02/29 11:07:41;;;;;;;30.98;16.30;;;;;;;15.36;100.00;100464.16;5091039;28;20093;-45
2024/02/29 11:10:10;;;;;;;30.00;15.55;;;;;;;15.36;100.00;100466.84;5091111;28;20097;-44
2024/02/29 11:12:40;;;;;;;29.58;16.27;;;;;;;15.34;100.00;100460.69;5090997;28;20118;-46
2024/02/29 11:15:11;;;;;;;24.45;15.50;;;;;;;15.55;100.00;100454.66;5091470;28;20048;-47